createdAt,value
2018-06-19T00:01:54.328Z,96.80
2018-06-19T00:03:57.830Z,96.80
2018-06-19T00:06:01.610Z,96.90
2018-06-19T00:08:05.239Z,96.90
2018-06-19T00:10:08.805Z,96.90
2018-06-19T00:12:12.292Z,97.00
2018-06-19T00:14:16.753Z,97.10
2018-06-19T00:16:20.336Z,97.20
2018-06-19T00:18:26.590Z,97.30
2018-06-19T00:20:30.138Z,97.50
2018-06-19T00:22:33.634Z,97.50
2018-06-19T00:24:37.149Z,97.60
2018-06-19T00:26:40.695Z,97.70
2018-06-19T00:28:45.898Z,97.70
2018-06-19T00:30:50.075Z,97.60
2018-06-19T00:32:53.546Z,97.50
2018-06-19T00:34:57.028Z,97.50
2018-06-19T00:37:00.637Z,97.50
2018-06-19T00:39:06.418Z,97.60
2018-06-19T00:41:09.931Z,97.30
2018-06-19T00:43:13.430Z,97.40
2018-06-19T00:45:17.031Z,97.30
2018-06-19T00:47:20.527Z,97.10
2018-06-19T00:49:24.049Z,97.20
2018-06-19T00:51:27.635Z,97.10
2018-06-19T00:53:31.112Z,97.10
2018-06-19T00:55:34.591Z,97.00
2018-06-19T00:57:38.107Z,96.90
2018-06-19T00:59:41.605Z,96.90
2018-06-19T01:01:45.105Z,96.90
2018-06-19T01:03:48.606Z,97.00
2018-06-19T01:05:52.115Z,97.00
2018-06-19T01:07:55.590Z,97.10
2018-06-19T01:10:00.025Z,97.10
2018-06-19T01:12:03.595Z,97.00
2018-06-19T01:14:07.107Z,97.10
2018-06-19T01:16:10.603Z,97.30
2018-06-19T01:18:14.047Z,97.40
2018-06-19T01:20:17.616Z,97.40
2018-06-19T01:22:21.329Z,97.40
2018-06-19T01:24:24.929Z,97.40
2018-06-19T01:26:28.459Z,97.20
2018-06-19T01:28:32.018Z,97.20
2018-06-19T01:30:35.484Z,97.20
2018-06-19T01:34:42.185Z,97.50
2018-06-19T01:36:45.660Z,97.50
2018-06-19T01:38:56.715Z,97.50
2018-06-19T01:41:00.273Z,97.40
2018-06-19T01:43:03.845Z,97.30
2018-06-19T01:45:07.330Z,97.40
2018-06-19T01:47:10.907Z,97.60
2018-06-19T01:49:14.416Z,97.70
2018-06-19T01:51:18.651Z,97.50
2018-06-19T01:53:22.208Z,97.50
2018-06-19T01:55:25.777Z,97.40
2018-06-19T01:57:29.260Z,97.30
2018-06-19T01:59:32.751Z,97.30
2018-06-19T02:01:36.231Z,97.00
2018-06-19T02:03:39.729Z,97.00
2018-06-19T02:05:43.239Z,97.20
2018-06-19T02:07:46.815Z,97.20
2018-06-19T02:09:50.367Z,97.20
2018-06-19T02:11:53.872Z,97.30
2018-06-19T02:13:57.401Z,97.50
2018-06-19T02:16:00.932Z,97.60
2018-06-19T02:18:04.455Z,97.70
2018-06-19T02:20:08.283Z,97.90
2018-06-19T02:22:11.770Z,97.80
2018-06-19T02:24:15.249Z,97.80
2018-06-19T02:26:18.747Z,97.60
2018-06-19T02:28:22.296Z,97.60
2018-06-19T02:30:25.883Z,97.60
2018-06-19T02:32:29.396Z,97.40
2018-06-19T02:34:32.987Z,97.50
2018-06-19T02:36:36.485Z,97.30
2018-06-19T02:38:39.991Z,97.30
2018-06-19T02:40:43.583Z,97.40
2018-06-19T02:42:47.088Z,97.30
2018-06-19T02:44:50.551Z,97.20
2018-06-19T02:46:54.060Z,97.10
2018-06-19T02:48:57.562Z,97.30
2018-06-19T02:51:01.047Z,97.30
2018-06-19T02:53:04.806Z,97.30
2018-06-19T02:55:08.334Z,97.40
2018-06-19T02:57:11.836Z,97.30
2018-06-19T02:59:15.417Z,97.30
2018-06-19T03:03:22.251Z,97.40
2018-06-19T03:05:25.726Z,97.40
2018-06-19T03:07:29.315Z,98.00
2018-06-19T03:09:32.784Z,98.00
2018-06-19T03:11:36.363Z,98.00
2018-06-19T03:13:39.903Z,98.00
2018-06-19T03:15:43.462Z,98.10
2018-06-19T03:17:46.947Z,97.70
2018-06-19T03:19:50.424Z,97.70
2018-06-19T03:21:53.936Z,97.70
2018-06-19T03:24:00.299Z,97.80
2018-06-19T03:26:03.775Z,97.90
2018-06-19T03:28:07.256Z,98.10
2018-06-19T03:30:10.741Z,98.20
2018-06-19T03:32:14.339Z,98.30
2018-06-19T03:34:17.853Z,98.30
2018-06-19T03:36:21.356Z,98.30
2018-06-19T03:38:24.875Z,98.20
2018-06-19T03:40:28.355Z,98.20
2018-06-19T03:42:31.834Z,98.50
2018-06-19T03:44:35.286Z,98.60
2018-06-19T03:46:38.915Z,98.50
2018-06-19T03:48:42.372Z,98.70
2018-06-19T03:50:46.019Z,98.80
2018-06-19T03:52:49.512Z,98.90
2018-06-19T03:54:52.975Z,99.10
2018-06-19T03:56:56.481Z,99.00
2018-06-19T03:58:59.939Z,99.10
2018-06-19T04:01:03.514Z,99.00
2018-06-19T04:03:07.058Z,99.10
2018-06-19T04:05:10.603Z,98.90
2018-06-19T04:07:14.175Z,99.10
2018-06-19T04:09:17.641Z,99.30
2018-06-19T04:11:21.165Z,99.00
2018-06-19T04:13:24.695Z,99.10
2018-06-19T04:15:28.336Z,99.10
2018-06-19T04:17:31.879Z,99.40
2018-06-19T04:19:35.354Z,99.30
2018-06-19T04:21:38.936Z,99.50
2018-06-19T04:23:42.425Z,99.40
2018-06-19T04:25:45.930Z,99.30
2018-06-19T04:27:49.575Z,99.10
2018-06-19T04:29:53.081Z,98.90
2018-06-19T04:31:56.691Z,98.70
2018-06-19T04:34:00.176Z,99.00
2018-06-19T04:36:03.656Z,99.10
2018-06-19T04:38:07.225Z,98.90
2018-06-19T04:40:10.720Z,98.90
2018-06-19T04:42:14.320Z,98.90
2018-06-19T04:44:17.835Z,99.00
2018-06-19T04:46:21.327Z,99.00
2018-06-19T04:48:24.844Z,99.30
2018-06-19T04:52:31.560Z,99.10
2018-06-19T04:54:35.226Z,99.00
2018-06-19T04:56:38.726Z,98.70
2018-06-19T04:58:42.286Z,98.80
2018-06-19T05:00:45.765Z,98.90
2018-06-19T05:02:49.286Z,99.20
2018-06-19T05:04:52.798Z,99.20
2018-06-19T05:06:57.672Z,99.30
2018-06-19T05:09:01.260Z,99.60
2018-06-19T05:11:04.732Z,99.60
2018-06-19T05:13:08.241Z,99.70
2018-06-19T05:15:11.743Z,99.50
2018-06-19T05:17:15.301Z,99.70
2018-06-19T05:19:18.790Z,99.50
2018-06-19T05:21:22.363Z,99.60
2018-06-19T05:23:25.918Z,99.60
2018-06-19T05:25:29.414Z,99.50
2018-06-19T05:29:36.182Z,99.70
2018-06-19T05:31:39.850Z,99.60
2018-06-19T05:33:43.322Z,99.60
2018-06-19T05:35:46.957Z,99.50
2018-06-19T05:37:50.531Z,99.70
2018-06-19T05:39:54.051Z,99.30
2018-06-19T05:41:57.528Z,99.10
2018-06-19T05:44:01.035Z,99.20
2018-06-19T05:46:04.587Z,99.00
2018-06-19T05:48:08.135Z,99.10
2018-06-19T05:50:11.694Z,98.80
2018-06-19T05:52:15.193Z,98.90
2018-06-19T05:54:18.656Z,98.80
2018-06-19T05:56:22.143Z,98.60
2018-06-19T06:00:29.291Z,98.60
2018-06-19T06:02:32.850Z,98.60
2018-06-19T06:04:36.347Z,98.70
2018-06-19T06:06:39.861Z,98.60
2018-06-19T06:08:43.600Z,98.60
2018-06-19T06:10:47.075Z,98.70
2018-06-19T06:12:50.607Z,98.60
2018-06-19T06:14:54.075Z,98.40
2018-06-19T06:16:57.575Z,98.00
2018-06-19T06:19:01.071Z,98.20
2018-06-19T06:21:04.637Z,98.10
2018-06-19T06:23:08.335Z,98.00
2018-06-19T06:25:11.968Z,98.00
2018-06-19T06:27:15.429Z,97.80
2018-06-19T06:29:18.912Z,97.90
2018-06-19T06:31:22.469Z,97.70
2018-06-19T06:33:25.892Z,97.70
2018-06-19T06:35:29.380Z,97.30
2018-06-19T06:37:32.851Z,97.20
2018-06-19T06:39:36.339Z,97.30
2018-06-19T06:41:39.870Z,97.40
2018-06-19T06:43:43.647Z,97.30
2018-06-19T06:45:47.123Z,97.60
2018-06-19T06:47:50.769Z,97.70
2018-06-19T06:49:54.295Z,97.60
2018-06-19T06:51:57.828Z,96.80
2018-06-19T06:54:01.307Z,97.40
2018-06-19T06:56:05.155Z,96.90
2018-06-19T06:58:08.667Z,96.70
2018-06-19T07:00:12.163Z,96.70
2018-06-19T07:02:15.624Z,96.90
2018-06-19T07:04:19.152Z,96.70
2018-06-19T07:06:22.791Z,96.70
2018-06-19T07:08:26.377Z,96.30
2018-06-19T07:10:29.867Z,96.60
2018-06-19T07:12:33.324Z,96.10
2018-06-19T07:14:36.808Z,96.30
2018-06-19T07:16:40.293Z,96.50
2018-06-19T07:18:44.002Z,96.20
2018-06-19T07:20:47.458Z,96.10
2018-06-19T07:22:50.899Z,95.60
2018-06-19T07:24:54.489Z,95.40
2018-06-19T07:26:57.955Z,95.00
2018-06-19T07:29:01.596Z,95.20
2018-06-19T07:31:05.183Z,95.20
2018-06-19T07:33:08.639Z,95.40
2018-06-19T07:35:12.111Z,95.20
2018-06-19T07:37:15.619Z,95.30
2018-06-19T07:39:19.113Z,95.40
2018-06-19T07:41:22.571Z,94.80
2018-06-19T07:43:29.135Z,94.60
2018-06-19T07:45:33.115Z,94.60
2018-06-19T07:47:36.600Z,94.90
2018-06-19T07:49:40.167Z,94.60
2018-06-19T07:51:43.642Z,94.50
2018-06-19T07:53:47.173Z,94.40
2018-06-19T07:55:50.683Z,94.30
2018-06-19T07:57:54.320Z,94.10
2018-06-19T07:59:57.948Z,94.30
2018-06-19T08:02:01.561Z,94.20
2018-06-19T08:04:05.237Z,93.80
2018-06-19T08:06:08.785Z,93.50
2018-06-19T08:10:15.546Z,93.70
2018-06-19T08:12:19.055Z,93.70
2018-06-19T08:14:22.639Z,93.60
2018-06-19T08:16:26.106Z,92.90
2018-06-19T08:18:29.587Z,93.20
2018-06-19T08:20:33.180Z,93.30
2018-06-19T08:22:36.779Z,93.00
2018-06-19T08:24:40.816Z,92.90
2018-06-19T08:26:44.478Z,92.60
2018-06-19T08:28:47.984Z,92.80
2018-06-19T08:30:51.555Z,92.30
2018-06-19T08:34:58.314Z,92.20
2018-06-19T08:37:01.879Z,91.60
2018-06-19T08:39:08.538Z,91.30
2018-06-19T08:41:12.210Z,91.70
2018-06-19T08:45:18.916Z,91.30
2018-06-19T08:47:22.511Z,91.50
2018-06-19T08:49:26.040Z,91.60
2018-06-19T08:51:29.508Z,91.30
2018-06-19T08:53:33.071Z,91.20
2018-06-19T08:55:36.597Z,91.10
2018-06-19T08:57:40.372Z,91.10
2018-06-19T08:59:43.855Z,91.50
2018-06-19T09:03:50.599Z,90.50
2018-06-19T09:05:54.135Z,90.20
2018-06-19T09:07:57.924Z,90.10
2018-06-19T09:10:01.427Z,88.90
2018-06-19T09:12:04.957Z,86.30
2018-06-19T09:14:08.456Z,87.80
2018-06-19T09:16:13.611Z,86.80
2018-06-19T09:18:17.084Z,86.90
2018-06-19T09:20:20.813Z,87.80
2018-06-19T09:22:24.270Z,88.00
2018-06-19T09:24:27.860Z,88.50
2018-06-19T09:26:31.352Z,88.80
2018-06-19T09:28:34.835Z,88.10
2018-06-19T09:30:38.373Z,87.40
2018-06-19T09:32:41.900Z,88.10
2018-06-19T09:34:45.467Z,86.50
2018-06-19T09:36:49.034Z,87.70
2018-06-19T09:38:52.519Z,88.80
2018-06-19T09:40:56.137Z,89.30
2018-06-19T09:42:59.609Z,89.80
2018-06-19T09:45:03.113Z,89.20
2018-06-19T09:47:06.602Z,89.50
2018-06-19T09:49:10.217Z,88.50
2018-06-19T09:51:13.712Z,86.20
2018-06-19T09:53:17.557Z,85.50
2018-06-19T09:55:21.247Z,86.00
2018-06-19T09:57:25.711Z,86.40
2018-06-19T09:59:29.330Z,85.80
2018-06-19T10:01:33.038Z,85.70
2018-06-19T10:03:36.860Z,86.60
2018-06-19T10:05:40.588Z,86.30
2018-06-19T10:07:44.035Z,86.30
2018-06-19T10:09:47.655Z,86.50
2018-06-19T10:11:51.247Z,85.70
2018-06-19T10:13:54.734Z,85.20
2018-06-19T10:15:58.212Z,85.60
2018-06-19T10:18:01.736Z,85.50
2018-06-19T10:20:05.268Z,83.90
2018-06-19T10:22:08.832Z,84.70
2018-06-19T10:24:12.753Z,83.40
2018-06-19T10:26:16.613Z,83.20
2018-06-19T10:28:20.084Z,82.60
2018-06-19T10:30:23.587Z,84.00
2018-06-19T10:32:27.163Z,83.00
2018-06-19T10:34:30.692Z,83.00
2018-06-19T10:38:37.758Z,84.20
2018-06-19T10:40:41.290Z,83.60
2018-06-19T10:42:44.799Z,83.50
2018-06-19T10:44:48.477Z,85.00
2018-06-19T10:48:55.498Z,84.70
2018-06-19T10:50:58.966Z,84.70
2018-06-19T10:53:02.564Z,84.60
2018-06-19T10:57:09.326Z,83.00
2018-06-19T10:59:12.775Z,84.10
2018-06-19T11:01:16.283Z,83.30
2018-06-19T11:03:19.867Z,83.70
2018-06-19T11:05:23.480Z,83.90
2018-06-19T11:07:30.016Z,82.70
2018-06-19T11:09:33.562Z,82.80
2018-06-19T11:11:37.078Z,83.10
2018-06-19T11:13:40.585Z,84.30
2018-06-19T11:15:44.120Z,84.70
2018-06-19T11:17:49.044Z,85.40
2018-06-19T11:19:52.537Z,85.60
2018-06-19T11:21:56.124Z,83.90
2018-06-19T11:23:59.635Z,84.00
2018-06-19T11:26:03.132Z,85.40
2018-06-19T11:28:06.742Z,83.30
2018-06-19T11:30:10.218Z,82.10
2018-06-19T11:32:14.263Z,81.20
2018-06-19T11:34:17.816Z,81.90
2018-06-19T11:36:21.312Z,82.60
2018-06-19T11:38:24.895Z,82.20
2018-06-19T11:40:28.403Z,82.60
2018-06-19T11:42:32.024Z,82.20
2018-06-19T11:44:35.597Z,82.40
2018-06-19T11:50:45.411Z,82.20
2018-06-19T11:52:48.879Z,83.90
2018-06-19T11:54:52.568Z,81.10
2018-06-19T11:56:56.143Z,81.20
2018-06-19T11:58:59.559Z,80.40
2018-06-19T12:01:03.208Z,80.40
2018-06-19T12:05:09.980Z,81.50
2018-06-19T12:07:13.473Z,81.30
2018-06-19T12:09:16.971Z,79.90
2018-06-19T12:11:20.520Z,78.00
2018-06-19T12:13:24.103Z,77.90
2018-06-19T12:15:27.676Z,79.40
2018-06-19T12:17:31.234Z,80.40
2018-06-19T12:19:34.698Z,82.20
2018-06-19T12:21:38.830Z,81.10
2018-06-19T12:23:42.459Z,81.20
2018-06-19T12:25:45.963Z,80.70
2018-06-19T12:27:49.544Z,80.80
2018-06-19T12:29:53.124Z,81.20
2018-06-19T12:31:56.695Z,81.90
2018-06-19T12:34:00.188Z,81.20
2018-06-19T12:36:03.894Z,79.80
2018-06-19T12:38:07.420Z,79.50
2018-06-19T12:40:10.907Z,79.30
2018-06-19T12:42:14.415Z,79.60
2018-06-19T12:44:17.916Z,79.60
2018-06-19T12:46:21.400Z,77.90
2018-06-19T12:48:24.971Z,78.80
2018-06-19T12:50:43.175Z,78.80
2018-06-19T12:52:57.986Z,78.10
2018-06-19T12:55:19.436Z,79.20
2018-06-19T12:57:22.983Z,78.70
2018-06-19T12:59:26.466Z,79.10
2018-06-19T13:01:29.951Z,79.10
2018-06-19T13:03:44.701Z,79.00
2018-06-19T13:05:59.304Z,79.10
2018-06-19T13:08:02.751Z,78.70
2018-06-19T13:10:06.328Z,79.80
2018-06-19T13:12:20.979Z,79.60
2018-06-19T13:14:36.820Z,79.50
2018-06-19T13:17:51.938Z,78.90
2018-06-19T13:20:06.429Z,79.50
2018-06-19T13:22:09.895Z,79.20
2018-06-19T13:24:13.408Z,79.50
2018-06-19T13:26:16.897Z,79.30
2018-06-19T13:28:20.701Z,79.50
2018-06-19T13:30:35.428Z,78.70
2018-06-19T13:32:39.462Z,78.50
2018-06-19T13:34:42.925Z,78.80
2018-06-19T13:36:46.405Z,78.90
2018-06-19T13:38:49.931Z,77.90
2018-06-19T13:41:07.034Z,78.80
2018-06-19T13:45:25.128Z,77.70
2018-06-19T13:47:28.647Z,78.50
2018-06-19T13:49:32.208Z,77.80
2018-06-19T13:51:35.655Z,78.40
2018-06-19T13:53:39.323Z,78.00
2018-06-19T13:57:19.123Z,77.80
2018-06-19T13:59:22.631Z,77.80
2018-06-19T14:01:26.162Z,77.10
2018-06-19T14:03:29.680Z,77.40
2018-06-19T14:05:33.272Z,77.00
2018-06-19T14:08:11.403Z,76.50
2018-06-19T14:10:28.322Z,76.50
2018-06-19T14:13:13.046Z,78.50
2018-06-19T14:15:16.938Z,78.00
2018-06-19T14:17:20.508Z,77.00
2018-06-19T14:19:24.064Z,76.40
2018-06-19T14:21:27.491Z,77.00
2018-06-19T14:23:30.977Z,77.20
2018-06-19T14:25:34.603Z,77.40
2018-06-19T14:27:38.159Z,77.50
2018-06-19T14:29:41.755Z,78.70
2018-06-19T14:31:45.267Z,78.40
2018-06-19T14:33:48.790Z,77.50
2018-06-19T14:35:52.259Z,77.10
2018-06-19T14:37:55.833Z,77.40
2018-06-19T14:39:59.453Z,75.70
2018-06-19T14:42:03.174Z,75.70
2018-06-19T14:44:06.667Z,76.90
2018-06-19T14:46:10.267Z,76.90
2018-06-19T14:48:20.854Z,76.70
2018-06-19T14:50:24.396Z,76.20
2018-06-19T14:52:28.060Z,74.90
2018-06-19T14:54:31.603Z,75.40
2018-06-19T14:56:35.148Z,76.50
2018-06-19T14:58:38.655Z,75.10
2018-06-19T15:00:42.210Z,76.30
2018-06-19T15:02:45.672Z,75.60
2018-06-19T15:04:49.242Z,76.20
2018-06-19T15:06:52.820Z,77.80
2018-06-19T15:08:56.364Z,76.40
2018-06-19T15:10:59.928Z,76.00
2018-06-19T15:13:03.548Z,75.30
2018-06-19T15:15:07.071Z,75.10
2018-06-19T15:17:11.100Z,73.80
2018-06-19T15:19:14.696Z,74.60
2018-06-19T15:21:18.170Z,76.20
2018-06-19T15:23:21.728Z,75.30
2018-06-19T15:25:25.230Z,75.60
2018-06-19T15:27:28.665Z,75.40
2018-06-19T15:29:32.223Z,75.20
2018-06-19T15:31:35.722Z,74.50
2018-06-19T15:33:39.208Z,74.00
2018-06-19T15:35:43.034Z,73.50
2018-06-19T15:37:46.574Z,74.30
2018-06-19T15:39:50.018Z,72.80
2018-06-19T15:41:53.544Z,72.40
2018-06-19T15:46:00.355Z,73.30
2018-06-19T15:48:04.053Z,70.90
2018-06-19T15:50:07.622Z,71.70
2018-06-19T15:52:11.119Z,71.50
2018-06-19T15:54:14.672Z,71.30
2018-06-19T15:56:18.158Z,71.30
2018-06-19T15:58:21.666Z,70.50
2018-06-19T16:00:25.203Z,69.50
2018-06-19T16:02:28.724Z,69.40
2018-06-19T16:04:32.274Z,69.70
2018-06-19T16:06:35.822Z,68.10
2018-06-19T16:08:39.317Z,67.40
2018-06-19T16:10:42.914Z,65.30
2018-06-19T16:12:46.484Z,62.60
2018-06-19T16:14:50.008Z,60.20
2018-06-19T16:16:53.532Z,58.50
2018-06-19T16:18:57.004Z,56.30
2018-06-19T16:21:00.543Z,56.60
2018-06-19T16:23:04.127Z,57.90
2018-06-19T16:25:07.656Z,57.30
2018-06-19T16:27:11.155Z,57.60
2018-06-19T16:29:14.755Z,56.70
2018-06-19T16:33:21.411Z,57.70
2018-06-19T16:35:24.917Z,59.00
2018-06-19T16:37:28.424Z,58.90
2018-06-19T16:39:31.948Z,60.70
2018-06-19T16:41:35.531Z,61.70
2018-06-19T16:43:39.026Z,63.90
2018-06-19T16:45:42.651Z,63.30
2018-06-19T16:47:46.151Z,64.20
2018-06-19T16:49:49.659Z,65.80
2018-06-19T16:51:53.300Z,67.00
2018-06-19T16:53:56.912Z,66.60
2018-06-19T16:56:00.428Z,65.60
2018-06-19T16:58:03.949Z,66.80
2018-06-19T17:00:07.819Z,66.70
2018-06-19T17:04:14.513Z,67.10
2018-06-19T17:06:18.035Z,67.80
2018-06-19T17:08:21.586Z,68.00
2018-06-19T17:10:25.195Z,68.20
2018-06-19T17:12:28.805Z,67.40
2018-06-19T17:14:32.419Z,67.30
2018-06-19T17:16:36.048Z,67.60
2018-06-19T17:18:39.626Z,68.60
2018-06-19T17:20:43.185Z,68.90
2018-06-19T17:22:46.683Z,68.60
2018-06-19T17:24:50.168Z,68.90
2018-06-19T17:28:57.098Z,69.70
2018-06-19T17:31:00.628Z,70.20
2018-06-19T17:33:05.661Z,70.90
2018-06-19T17:35:09.289Z,70.50
2018-06-19T17:37:12.786Z,72.30
2018-06-19T17:39:16.292Z,71.70
2018-06-19T17:41:19.803Z,71.30
2018-06-19T17:43:23.316Z,71.50
2018-06-19T17:45:26.930Z,71.60
2018-06-19T17:47:30.480Z,71.80
2018-06-19T17:49:33.983Z,72.70
2018-06-19T17:51:37.553Z,72.10
2018-06-19T17:53:41.053Z,73.30
2018-06-19T17:55:44.663Z,73.00
2018-06-19T17:57:48.173Z,72.60
2018-06-19T18:01:55.088Z,73.00
2018-06-19T18:03:58.633Z,72.80
2018-06-19T18:06:02.155Z,72.60
2018-06-19T18:08:06.020Z,73.30
2018-06-19T18:10:09.567Z,73.70
2018-06-19T18:12:15.579Z,73.50
2018-06-19T18:14:19.123Z,73.40
2018-06-19T18:16:22.657Z,74.10
2018-06-19T18:18:26.170Z,74.00
2018-06-19T18:20:29.685Z,74.50
2018-06-19T18:22:33.227Z,74.90
2018-06-19T18:24:36.752Z,75.50
2018-06-19T18:26:40.339Z,75.60
2018-06-19T18:28:43.824Z,76.00
2018-06-19T18:30:47.350Z,75.50
2018-06-19T18:32:51.051Z,75.70
2018-06-19T18:34:54.566Z,75.20
2018-06-19T18:36:58.111Z,75.10
2018-06-19T18:39:01.636Z,75.50
2018-06-19T18:41:05.181Z,76.40
2018-06-19T18:43:08.799Z,76.40
2018-06-19T18:45:12.346Z,76.70
2018-06-19T18:47:15.856Z,77.10
2018-06-19T18:49:19.542Z,77.90
2018-06-19T18:51:23.067Z,78.20
2018-06-19T18:53:26.898Z,78.60
2018-06-19T18:55:30.748Z,78.30
2018-06-19T18:57:34.249Z,78.20
2018-06-19T18:59:38.161Z,77.70
2018-06-19T19:01:41.719Z,78.00
2018-06-19T19:03:45.295Z,78.10
2018-06-19T19:05:48.881Z,80.00
2018-06-19T19:07:52.497Z,81.10
2018-06-19T19:10:01.296Z,81.90
2018-06-19T19:12:04.849Z,82.20
2018-06-19T19:14:08.480Z,82.50
2018-06-19T19:16:17.218Z,83.00
2018-06-19T19:18:26.166Z,83.80
2018-06-19T19:20:29.728Z,84.70
2018-06-19T19:22:33.328Z,84.50
2018-06-19T19:24:36.836Z,85.10
2018-06-19T19:26:45.802Z,85.20
2018-06-19T19:28:54.581Z,86.00
2018-06-19T19:30:58.304Z,86.00
2018-06-19T19:33:01.863Z,86.80
2018-06-19T19:35:05.381Z,87.30
2018-06-19T19:37:14.180Z,87.90
2018-06-19T19:39:24.394Z,88.40
2018-06-19T19:41:27.937Z,88.80
2018-06-19T19:43:31.510Z,90.00
2018-06-19T19:45:35.064Z,88.80
2018-06-19T19:47:44.031Z,89.10
2018-06-19T19:49:47.580Z,89.30
2018-06-19T19:51:51.211Z,90.40
2018-06-19T19:53:54.714Z,90.80
2018-06-19T19:56:03.653Z,91.20
2018-06-19T19:58:12.592Z,91.30
2018-06-19T20:00:19.575Z,91.30
2018-06-19T20:02:23.163Z,91.60
2018-06-19T20:06:29.935Z,92.10
2018-06-19T20:08:33.527Z,92.30
2018-06-19T20:10:37.050Z,92.40
2018-06-19T20:12:40.571Z,92.50
2018-06-19T20:14:44.100Z,92.90
2018-06-19T20:16:47.603Z,93.10
2018-06-19T20:18:51.116Z,93.20
2018-06-19T20:20:54.624Z,93.40
2018-06-19T20:23:00.279Z,93.60
2018-06-19T20:25:04.037Z,93.70
2018-06-19T20:27:07.561Z,93.80
2018-06-19T20:29:11.140Z,93.90
2018-06-19T20:31:14.619Z,93.70
2018-06-19T20:33:18.163Z,93.70
2018-06-19T20:35:21.727Z,93.80
2018-06-19T20:37:25.331Z,94.00
2018-06-19T20:39:28.824Z,94.30
2018-06-19T20:41:32.397Z,94.40
2018-06-19T20:43:35.904Z,94.60
2018-06-19T20:45:39.419Z,94.60
2018-06-19T20:47:42.928Z,94.80
2018-06-19T20:49:46.483Z,94.80
2018-06-19T20:51:49.983Z,95.20
2018-06-19T20:53:53.597Z,95.20
2018-06-19T20:55:57.089Z,95.30
2018-06-19T20:58:01.511Z,95.30
2018-06-19T21:00:05.171Z,95.30
2018-06-19T21:02:08.745Z,95.50
2018-06-19T21:04:12.444Z,95.50
2018-06-19T21:06:16.004Z,95.60
2018-06-19T21:08:19.648Z,95.60
2018-06-19T21:10:23.177Z,95.70
2018-06-19T21:12:26.934Z,95.80
2018-06-19T21:14:30.482Z,95.90
2018-06-19T21:16:34.090Z,96.00
2018-06-19T21:18:38.460Z,96.10
2018-06-19T21:20:41.963Z,95.90
2018-06-19T21:22:45.450Z,95.80
2018-06-19T21:24:48.985Z,95.40
2018-06-19T21:26:52.549Z,95.50
2018-06-19T21:28:56.095Z,95.50
2018-06-19T21:30:59.584Z,95.40
2018-06-19T21:33:03.100Z,95.50
2018-06-19T21:35:06.596Z,95.70
2018-06-19T21:37:10.331Z,95.70
2018-06-19T21:39:13.812Z,95.90
2018-06-19T21:41:17.320Z,96.00
2018-06-19T21:43:20.803Z,96.00
2018-06-19T21:45:24.316Z,96.10
2018-06-19T21:47:27.848Z,96.20
2018-06-19T21:49:31.411Z,96.30
2018-06-19T21:51:34.881Z,96.30
2018-06-19T21:53:38.419Z,96.20
2018-06-19T21:55:41.880Z,96.20
2018-06-19T21:57:45.607Z,96.50
2018-06-19T21:59:49.067Z,96.50
2018-06-19T22:01:52.605Z,96.30
2018-06-19T22:03:56.135Z,96.40
2018-06-19T22:05:59.653Z,96.40
2018-06-19T22:08:03.188Z,96.30
2018-06-19T22:10:06.742Z,96.50
2018-06-19T22:12:10.263Z,96.50
2018-06-19T22:14:13.762Z,96.20
2018-06-19T22:16:17.330Z,96.30
2018-06-19T22:18:20.851Z,96.60
2018-06-19T22:20:24.375Z,96.60
2018-06-19T22:22:27.864Z,96.60
2018-06-19T22:24:31.484Z,96.50
2018-06-19T22:26:35.059Z,96.60
2018-06-19T22:28:38.622Z,96.60
2018-06-19T22:30:42.339Z,96.50
2018-06-19T22:32:45.970Z,96.50
2018-06-19T22:34:49.640Z,96.60
2018-06-19T22:36:53.136Z,96.70
2018-06-19T22:38:56.627Z,96.90
2018-06-19T22:41:00.247Z,96.90
2018-06-19T22:43:03.740Z,96.90
2018-06-19T22:45:07.291Z,96.90
2018-06-19T22:49:14.023Z,97.30
2018-06-19T22:51:17.534Z,97.30
2018-06-19T22:53:21.129Z,97.40
2018-06-19T22:55:24.604Z,97.60
2018-06-19T22:57:28.088Z,97.60
2018-06-19T22:59:31.717Z,97.80
2018-06-19T23:01:35.304Z,97.80
2018-06-19T23:03:38.791Z,97.90
2018-06-19T23:05:42.319Z,98.00
2018-06-19T23:07:45.876Z,98.20
2018-06-19T23:09:49.390Z,98.10
2018-06-19T23:11:52.879Z,98.10
2018-06-19T23:13:56.431Z,98.00
2018-06-19T23:15:59.976Z,98.00
2018-06-19T23:18:03.541Z,98.00
2018-06-19T23:20:07.122Z,98.00
2018-06-19T23:22:10.557Z,98.10
2018-06-19T23:24:14.099Z,98.30
2018-06-19T23:26:17.695Z,98.40
2018-06-19T23:28:21.195Z,98.70
2018-06-19T23:30:24.735Z,98.90
2018-06-19T23:32:28.216Z,98.90
2018-06-19T23:34:31.734Z,99.20
2018-06-19T23:36:35.251Z,99.40
2018-06-19T23:38:38.811Z,99.60
2018-06-19T23:40:42.350Z,99.70
2018-06-19T23:42:45.982Z,99.80
2018-06-19T23:44:49.472Z,99.90
2018-06-19T23:48:56.183Z,99.90
2018-06-19T23:50:59.680Z,99.90
2018-06-19T23:53:03.236Z,99.90
2018-06-19T23:55:06.867Z,99.90
2018-06-19T23:57:10.519Z,99.90
2018-06-19T23:59:14.010Z,99.90
